createdAt,value
2018-09-02T00:00:16.968Z,7.27
2018-09-02T00:02:45.193Z,7.30
2018-09-02T00:05:13.358Z,7.33
2018-09-02T00:07:41.589Z,7.80
2018-09-02T00:10:09.857Z,8.77
2018-09-02T00:12:38.061Z,8.33
2018-09-02T00:15:06.399Z,8.40
2018-09-02T00:17:34.649Z,8.33
2018-09-02T00:20:03.309Z,7.87
2018-09-02T00:22:31.521Z,9.10
2018-09-02T00:24:59.689Z,8.47
2018-09-02T00:27:27.881Z,8.33
2018-09-02T00:29:56.070Z,7.77
2018-09-02T00:32:24.330Z,8.13
2018-09-02T00:34:52.578Z,8.23
2018-09-02T00:37:20.745Z,7.93
2018-09-02T00:39:48.977Z,8.03
2018-09-02T00:42:17.231Z,7.90
2018-09-02T00:44:45.506Z,8.67
2018-09-02T00:47:13.786Z,6.97
2018-09-02T00:49:41.981Z,7.87
2018-09-02T00:52:10.168Z,8.20
2018-09-02T00:54:38.339Z,8.53
2018-09-02T00:57:06.534Z,8.10
2018-09-02T00:59:34.695Z,8.80
2018-09-02T01:02:03.079Z,7.17
2018-09-02T01:04:31.262Z,7.40
2018-09-02T01:06:59.535Z,7.80
2018-09-02T01:09:27.781Z,7.83
2018-09-02T01:11:55.951Z,8.00
2018-09-02T01:14:24.166Z,8.33
2018-09-02T01:16:52.361Z,7.87
2018-09-02T01:19:20.534Z,8.87
2018-09-02T01:21:48.701Z,7.87
2018-09-02T01:24:16.994Z,8.60
2018-09-02T01:26:45.170Z,7.90
2018-09-02T01:29:13.334Z,7.30
2018-09-02T01:31:41.529Z,8.10
2018-09-02T01:34:09.701Z,8.30
2018-09-02T01:36:37.878Z,8.27
2018-09-02T01:39:07.078Z,8.20
2018-09-02T01:41:35.289Z,6.97
2018-09-02T01:44:03.478Z,7.90
2018-09-02T01:46:31.701Z,8.50
2018-09-02T01:48:59.862Z,7.90
2018-09-02T01:51:28.098Z,7.47
2018-09-02T01:53:56.282Z,7.97
2018-09-02T01:56:24.472Z,8.10
2018-09-02T01:58:52.725Z,8.30
2018-09-02T02:01:20.914Z,8.30
2018-09-02T02:03:49.401Z,8.30
2018-09-02T02:06:17.561Z,8.03
2018-09-02T02:08:45.741Z,7.50
2018-09-02T02:11:13.971Z,8.90
2018-09-02T02:13:42.137Z,8.70
2018-09-02T02:16:10.348Z,9.60
2018-09-02T02:18:38.635Z,8.33
2018-09-02T02:21:06.969Z,8.63
2018-09-02T02:23:35.213Z,7.50
2018-09-02T02:26:03.508Z,7.50
2018-09-02T02:28:31.796Z,7.50
2018-09-02T02:31:00.090Z,8.20
2018-09-02T02:33:28.361Z,7.50
2018-09-02T02:35:56.533Z,7.83
2018-09-02T02:38:24.746Z,7.90
2018-09-02T02:40:53.037Z,7.90
2018-09-02T02:43:21.321Z,7.77
2018-09-02T02:45:49.602Z,7.67
2018-09-02T02:48:17.841Z,7.50
2018-09-02T02:50:46.041Z,7.77
2018-09-02T02:53:14.213Z,6.93
2018-09-02T02:55:42.410Z,7.40
2018-09-02T02:58:10.589Z,6.80
2018-09-02T03:00:38.762Z,7.30
2018-09-02T03:03:07.028Z,7.10
2018-09-02T03:05:35.314Z,6.60
2018-09-02T03:08:03.492Z,7.97
2018-09-02T03:10:31.661Z,8.20
2018-09-02T03:12:59.841Z,7.93
2018-09-02T03:15:28.023Z,8.20
2018-09-02T03:17:56.193Z,8.37
2018-09-02T03:20:24.385Z,8.17
2018-09-02T03:22:52.609Z,8.50
2018-09-02T03:25:20.798Z,8.50
2018-09-02T03:27:48.962Z,8.17
2018-09-02T03:30:17.144Z,9.00
2018-09-02T03:32:45.322Z,9.10
2018-09-02T03:35:13.500Z,9.30
2018-09-02T03:37:41.710Z,9.97
2018-09-02T03:40:09.891Z,9.40
2018-09-02T03:42:38.090Z,10.10
2018-09-02T03:45:06.317Z,9.83
2018-09-02T03:47:34.602Z,10.60
2018-09-02T03:50:02.791Z,11.53
2018-09-02T03:52:31.065Z,11.37
2018-09-02T03:54:59.294Z,12.10
2018-09-02T03:57:27.539Z,11.43
2018-09-02T03:59:56.555Z,12.70
2018-09-02T04:02:24.830Z,13.70
2018-09-02T04:04:53.028Z,13.40
2018-09-02T04:07:21.221Z,15.00
2018-09-02T04:09:49.441Z,15.57
2018-09-02T04:12:17.691Z,13.40
2018-09-02T04:14:45.881Z,13.80
2018-09-02T04:17:14.089Z,14.50
2018-09-02T04:19:42.289Z,13.67
2018-09-02T04:22:10.485Z,14.50
2018-09-02T04:24:38.702Z,14.00
2018-09-02T04:27:06.881Z,14.20
2018-09-02T04:29:35.162Z,13.10
2018-09-02T04:32:03.434Z,14.73
2018-09-02T04:34:31.709Z,14.50
2018-09-02T04:36:59.946Z,13.23
2018-09-02T04:39:28.145Z,14.50
2018-09-02T04:41:56.425Z,14.13
2018-09-02T04:44:24.600Z,14.30
2018-09-02T04:46:52.824Z,14.17
2018-09-02T04:49:21.074Z,13.90
2018-09-02T04:51:49.313Z,14.67
2018-09-02T04:54:17.524Z,13.60
2018-09-02T04:56:45.753Z,12.90
2018-09-02T04:59:13.949Z,14.27
2018-09-02T05:01:42.137Z,14.27
2018-09-02T05:04:10.405Z,13.10
2018-09-02T05:06:38.933Z,14.47
2018-09-02T05:09:07.154Z,13.77
2018-09-02T05:11:35.342Z,15.17
2018-09-02T05:14:03.597Z,15.97
2018-09-02T05:16:31.731Z,15.67
2018-09-02T05:18:59.909Z,16.60
2018-09-02T05:21:28.127Z,15.90
2018-09-02T05:23:56.309Z,16.07
2018-09-02T05:26:24.625Z,17.77
2018-09-02T05:28:53.064Z,17.33
2018-09-02T05:31:21.476Z,17.13
2018-09-02T05:33:49.646Z,15.80
2018-09-02T05:36:17.865Z,16.90
2018-09-02T05:38:46.064Z,17.00
2018-09-02T05:41:14.245Z,15.50
2018-09-02T05:43:42.518Z,17.03
2018-09-02T05:46:10.701Z,16.00
2018-09-02T05:48:38.897Z,16.00
2018-09-02T05:51:07.223Z,16.17
2018-09-02T05:53:35.409Z,15.00
2018-09-02T05:56:03.599Z,16.00
2018-09-02T05:58:31.842Z,16.47
2018-09-02T06:01:00.038Z,16.37
2018-09-02T06:03:28.311Z,15.80
2018-09-02T06:05:56.529Z,16.60
2018-09-02T06:08:24.841Z,17.33
2018-09-02T06:10:53.099Z,16.33
2018-09-02T06:13:21.298Z,17.43
2018-09-02T06:15:49.479Z,14.40
2018-09-02T06:18:17.661Z,15.00
2018-09-02T06:20:45.849Z,15.60
2018-09-02T06:23:14.037Z,15.23
2018-09-02T06:25:42.227Z,15.00
2018-09-02T06:28:10.495Z,16.23
2018-09-02T06:30:38.685Z,15.90
2018-09-02T06:33:06.961Z,15.50
2018-09-02T06:35:35.173Z,15.47
2018-09-02T06:38:03.421Z,14.83
2018-09-02T06:40:31.659Z,15.60
2018-09-02T06:42:59.926Z,14.00
2018-09-02T06:45:28.149Z,16.27
2018-09-02T06:47:56.344Z,16.87
2018-09-02T06:50:24.540Z,14.77
2018-09-02T06:52:52.762Z,16.00
2018-09-02T06:55:20.943Z,15.50
2018-09-02T06:57:49.129Z,14.90
2018-09-02T07:00:17.306Z,14.70
2018-09-02T07:02:45.489Z,14.43
2018-09-02T07:05:13.689Z,13.93
2018-09-02T07:07:42.011Z,14.70
2018-09-02T07:10:10.273Z,17.10
2018-09-02T07:12:38.502Z,14.70
2018-09-02T07:15:06.789Z,14.60
2018-09-02T07:17:35.030Z,15.80
2018-09-02T07:20:03.362Z,16.57
2018-09-02T07:22:31.609Z,14.67
2018-09-02T07:24:59.797Z,15.63
2018-09-02T07:27:28.115Z,15.47
2018-09-02T07:29:56.307Z,15.27
2018-09-02T07:32:24.505Z,14.20
2018-09-02T07:34:52.777Z,14.37
2018-09-02T07:37:21.185Z,15.30
2018-09-02T07:39:49.384Z,15.13
2018-09-02T07:42:17.613Z,15.23
2018-09-02T07:44:45.836Z,13.90
2018-09-02T07:47:14.501Z,14.63
2018-09-02T07:49:42.715Z,17.13
2018-09-02T07:52:10.912Z,16.33
2018-09-02T07:54:39.194Z,16.27
2018-09-02T07:57:07.478Z,16.40
2018-09-02T07:59:35.729Z,13.30
2018-09-02T08:02:03.965Z,13.10
2018-09-02T08:04:32.204Z,13.77
2018-09-02T08:07:00.417Z,12.73
2018-09-02T08:09:28.691Z,12.20
2018-09-02T08:11:56.986Z,12.90
2018-09-02T08:14:25.170Z,12.50
2018-09-02T08:16:53.462Z,12.67
2018-09-02T08:19:21.783Z,12.03
2018-09-02T08:21:50.030Z,13.60
2018-09-02T08:24:18.237Z,12.90
2018-09-02T08:26:46.513Z,13.30
2018-09-02T08:29:14.605Z,13.03
2018-09-02T08:31:42.814Z,12.70
2018-09-02T08:34:11.053Z,12.90
2018-09-02T08:36:39.261Z,12.40
2018-09-02T08:39:09.343Z,13.57
2018-09-02T08:41:37.582Z,14.40
2018-09-02T08:44:06.092Z,13.00
2018-09-02T08:46:34.249Z,13.53
2018-09-02T08:49:02.542Z,14.63
2018-09-02T08:51:31.656Z,14.20
2018-09-02T08:53:59.937Z,12.67
2018-09-02T08:56:28.228Z,14.43
2018-09-02T08:58:56.421Z,15.20
2018-09-02T09:01:24.727Z,13.23
2018-09-02T09:03:53.274Z,14.27
2018-09-02T09:06:21.519Z,14.30
2018-09-02T09:08:50.050Z,14.70
2018-09-02T09:11:18.423Z,13.60
2018-09-02T09:13:46.622Z,15.30
2018-09-02T09:16:14.821Z,14.80
2018-09-02T09:18:42.997Z,14.80
2018-09-02T09:21:11.218Z,15.10
2018-09-02T09:23:39.401Z,13.33
2018-09-02T09:26:07.857Z,14.30
2018-09-02T09:28:36.107Z,14.90
2018-09-02T09:31:04.362Z,13.37
2018-09-02T09:33:32.541Z,14.73
2018-09-02T09:36:00.730Z,14.37
2018-09-02T09:38:28.951Z,15.20
2018-09-02T09:40:57.217Z,13.90
2018-09-02T09:43:25.388Z,15.17
2018-09-02T09:45:53.651Z,15.40
2018-09-02T09:48:21.793Z,13.67
2018-09-02T09:50:49.977Z,15.40
2018-09-02T09:53:18.153Z,16.50
2018-09-02T09:55:46.443Z,14.30
2018-09-02T09:58:14.625Z,14.63
2018-09-02T10:00:48.712Z,17.20
2018-09-02T10:03:17.396Z,14.03
2018-09-02T10:05:45.679Z,14.83
2018-09-02T10:08:13.943Z,15.57
2018-09-02T10:10:42.854Z,16.50
2018-09-02T10:13:11.176Z,15.37
2018-09-02T10:15:39.719Z,15.83
2018-09-02T10:18:08.190Z,15.33
2018-09-02T10:20:36.443Z,15.80
2018-09-02T10:23:05.021Z,16.33
2018-09-02T10:25:33.473Z,16.00
2018-09-02T10:28:04.706Z,17.17
2018-09-02T10:30:32.949Z,16.07
2018-09-02T10:33:01.242Z,15.77
2018-09-02T10:35:29.518Z,14.93
2018-09-02T10:37:57.805Z,15.07
2018-09-02T10:40:25.985Z,15.33
2018-09-02T10:42:54.190Z,15.70
2018-09-02T10:45:22.514Z,15.47
2018-09-02T10:47:50.780Z,15.53
2018-09-02T10:50:19.075Z,16.77
2018-09-02T10:52:47.387Z,13.90
2018-09-02T10:55:15.703Z,15.00
2018-09-02T10:57:43.902Z,14.70
2018-09-02T11:00:12.102Z,17.00
2018-09-02T11:02:40.850Z,15.60
2018-09-02T11:05:09.577Z,15.87
2018-09-02T11:07:37.813Z,15.43
2018-09-02T11:10:06.621Z,15.97
2018-09-02T11:12:34.903Z,16.63
2018-09-02T11:15:03.189Z,15.63
2018-09-02T11:17:31.366Z,13.57
2018-09-02T11:19:59.686Z,15.13
2018-09-02T11:22:27.933Z,15.40
2018-09-02T11:24:56.213Z,15.27
2018-09-02T11:27:24.506Z,14.37
2018-09-02T11:29:52.685Z,13.80
2018-09-02T11:32:20.978Z,15.13
2018-09-02T11:34:49.360Z,13.60
2018-09-02T11:37:17.569Z,13.70
2018-09-02T11:39:45.960Z,14.10
2018-09-02T11:42:14.249Z,14.77
2018-09-02T11:44:42.537Z,13.77
2018-09-02T11:47:10.834Z,14.93
2018-09-02T11:49:40.018Z,12.60
2018-09-02T11:52:08.318Z,13.37
2018-09-02T11:54:36.531Z,14.07
2018-09-02T11:57:04.762Z,13.37
2018-09-02T11:59:36.786Z,14.53
2018-09-02T12:02:05.210Z,12.53
2018-09-02T12:04:33.458Z,13.10
2018-09-02T12:07:01.726Z,11.60
2018-09-02T12:09:29.901Z,11.07
2018-09-02T12:11:58.163Z,11.67
2018-09-02T12:14:26.382Z,13.00
2018-09-02T12:16:54.593Z,13.87
2018-09-02T12:19:22.862Z,14.10
2018-09-02T12:21:51.078Z,12.80
2018-09-02T12:24:19.537Z,12.30
2018-09-02T12:26:47.741Z,12.83
2018-09-02T12:29:16.037Z,11.67
2018-09-02T12:31:45.086Z,12.27
2018-09-02T12:34:13.349Z,11.40
2018-09-02T12:36:41.537Z,11.77
2018-09-02T12:39:10.073Z,13.33
2018-09-02T12:41:38.274Z,11.93
2018-09-02T12:44:06.481Z,12.10
2018-09-02T12:46:35.041Z,11.77
2018-09-02T12:49:03.254Z,12.10
2018-09-02T12:51:31.552Z,12.23
2018-09-02T12:53:59.737Z,11.90
2018-09-02T12:56:28.041Z,12.40
2018-09-02T12:58:56.298Z,12.53
2018-09-02T13:01:24.651Z,12.50
2018-09-02T13:03:52.865Z,13.00
2018-09-02T13:06:21.155Z,12.70
2018-09-02T13:08:49.537Z,12.70
2018-09-02T13:11:17.819Z,12.97
2018-09-02T13:13:46.038Z,12.17
2018-09-02T13:16:14.221Z,13.53
2018-09-02T13:18:42.422Z,12.97
2018-09-02T13:21:10.629Z,12.80
2018-09-02T13:23:38.809Z,13.07
2018-09-02T13:26:07.064Z,14.33
2018-09-02T13:28:35.341Z,15.07
2018-09-02T13:31:03.541Z,14.60
2018-09-02T13:33:31.817Z,15.60
2018-09-02T13:36:00.106Z,13.97
2018-09-02T13:38:28.311Z,14.20
2018-09-02T13:40:56.505Z,14.17
2018-09-02T13:43:24.763Z,14.70
2018-09-02T13:45:53.972Z,15.23
2018-09-02T13:48:22.217Z,16.50
2018-09-02T13:50:50.458Z,17.30
2018-09-02T13:53:18.670Z,17.50
2018-09-02T13:55:46.938Z,17.07
2018-09-02T13:58:15.146Z,15.70
2018-09-02T14:00:43.421Z,17.77
2018-09-02T14:03:11.698Z,17.40
2018-09-02T14:05:39.896Z,17.03
2018-09-02T14:08:08.293Z,17.50
2018-09-02T14:10:36.422Z,18.50
2018-09-02T14:13:04.769Z,17.70
2018-09-02T14:15:32.982Z,16.77
2018-09-02T14:18:01.246Z,18.03
2018-09-02T14:20:29.439Z,15.83
2018-09-02T14:22:57.692Z,17.83
2018-09-02T14:25:25.977Z,17.20
2018-09-02T14:27:54.246Z,17.23
2018-09-02T14:30:22.471Z,16.80
2018-09-02T14:32:50.746Z,18.10
2018-09-02T14:35:19.021Z,17.70
2018-09-02T14:37:47.245Z,15.83
2018-09-02T14:40:15.462Z,17.60
2018-09-02T14:42:43.705Z,17.53
2018-09-02T14:45:11.932Z,18.33
2018-09-02T14:47:40.174Z,18.10
2018-09-02T14:50:08.410Z,18.77
2018-09-02T14:52:36.656Z,18.07
2018-09-02T14:55:04.986Z,16.87
2018-09-02T14:57:33.581Z,16.77
2018-09-02T15:00:01.906Z,17.03
2018-09-02T15:02:30.210Z,18.63
2018-09-02T15:04:58.526Z,18.80
2018-09-02T15:07:27.073Z,21.00
2018-09-02T15:09:55.542Z,19.40
2018-09-02T15:12:24.370Z,21.60
2018-09-02T15:14:52.829Z,22.60
2018-09-02T15:17:21.463Z,22.93
2018-09-02T15:19:50.651Z,20.83
2018-09-02T15:22:20.130Z,22.73
2018-09-02T15:24:48.329Z,25.60
2018-09-02T15:27:16.693Z,24.30
2018-09-02T15:29:44.881Z,23.73
2018-09-02T15:32:13.277Z,23.13
2018-09-02T15:34:41.582Z,23.37
2018-09-02T15:37:09.846Z,23.37
2018-09-02T15:39:38.165Z,24.67
2018-09-02T15:42:06.379Z,24.70
2018-09-02T15:44:34.637Z,24.17
2018-09-02T15:47:02.954Z,22.80
2018-09-02T15:49:31.162Z,24.13
2018-09-02T15:51:59.405Z,25.50
2018-09-02T15:54:27.701Z,24.10
2018-09-02T15:56:55.954Z,25.40
2018-09-02T15:59:24.358Z,25.60
2018-09-02T16:01:52.621Z,26.40
2018-09-02T16:04:20.921Z,25.13
2018-09-02T16:06:49.206Z,23.87
2018-09-02T16:09:17.381Z,25.43
2018-09-02T16:11:45.617Z,27.07
2018-09-02T16:14:13.859Z,27.10
2018-09-02T16:16:42.097Z,24.67
2018-09-02T16:19:10.381Z,26.00
2018-09-02T16:21:38.745Z,25.60
2018-09-02T16:24:06.937Z,26.80
2018-09-02T16:26:35.216Z,25.73
2018-09-02T16:29:04.452Z,25.37
2018-09-02T16:31:32.712Z,25.33
2018-09-02T16:34:08.439Z,26.70
2018-09-02T16:36:39.622Z,27.00
2018-09-02T16:39:09.037Z,28.73
2018-09-02T16:41:37.437Z,26.27
2018-09-02T16:44:05.781Z,26.63
2018-09-02T16:46:34.105Z,26.60
2018-09-02T16:49:02.435Z,26.67
2018-09-02T16:51:30.709Z,26.77
2018-09-02T16:53:58.989Z,28.00
2018-09-02T16:56:27.174Z,28.20
2018-09-02T16:58:55.462Z,27.77
2018-09-02T17:01:23.641Z,27.07
2018-09-02T17:03:55.225Z,27.33
2018-09-02T17:06:23.422Z,26.20
2018-09-02T17:08:51.701Z,27.63
2018-09-02T17:11:19.898Z,27.27
2018-09-02T17:13:48.164Z,26.73
2018-09-02T17:16:16.929Z,25.60
2018-09-02T17:18:45.309Z,26.97
2018-09-02T17:21:13.586Z,27.07
2018-09-02T17:23:41.826Z,26.57
2018-09-02T17:26:10.155Z,28.30
2018-09-02T17:28:38.383Z,27.70
2018-09-02T17:31:06.626Z,28.70
2018-09-02T17:36:15.270Z,27.77
2018-09-02T17:38:43.618Z,27.17
2018-09-02T17:41:11.809Z,27.10
2018-09-02T17:43:40.030Z,24.93
2018-09-02T17:46:08.243Z,26.80
2018-09-02T17:48:36.445Z,27.93
2018-09-02T17:51:04.629Z,25.23
2018-09-02T17:53:32.829Z,26.90
2018-09-02T17:56:01.026Z,25.50
2018-09-02T17:58:29.253Z,24.83
2018-09-02T18:00:58.778Z,25.80
2018-09-02T18:03:26.967Z,26.23
2018-09-02T18:05:55.993Z,26.80
2018-09-02T18:08:24.326Z,25.67
2018-09-02T18:10:52.466Z,26.30
2018-09-02T18:13:20.690Z,25.70
2018-09-02T18:15:48.890Z,26.87
2018-09-02T18:18:17.058Z,26.07
2018-09-02T18:20:46.310Z,26.97
2018-09-02T18:23:14.540Z,26.60
2018-09-02T18:25:42.737Z,28.57
2018-09-02T18:28:13.861Z,28.20
2018-09-02T18:30:42.057Z,28.90
2018-09-02T18:33:10.237Z,28.20
2018-09-02T18:35:38.437Z,28.70
2018-09-02T18:38:06.638Z,29.10
2018-09-02T18:40:34.838Z,27.33
2018-09-02T18:43:03.045Z,26.27
2018-09-02T18:45:31.294Z,28.50
2018-09-02T18:47:59.465Z,26.53
2018-09-02T18:50:27.666Z,26.27
2018-09-02T18:52:55.870Z,25.40
2018-09-02T18:55:24.066Z,26.67
2018-09-02T18:57:52.262Z,26.40
2018-09-02T19:00:20.453Z,23.63
2018-09-02T19:02:48.691Z,27.87
2018-09-02T19:05:16.857Z,27.27
2018-09-02T19:07:45.049Z,25.90
2018-09-02T19:10:13.355Z,26.33
2018-09-02T19:12:41.597Z,26.70
2018-09-02T19:15:09.804Z,27.23
2018-09-02T19:17:38.134Z,28.03
2018-09-02T19:20:07.027Z,29.50
2018-09-02T19:22:35.237Z,28.93
2018-09-02T19:25:03.459Z,27.33
2018-09-02T19:27:31.806Z,29.43
2018-09-02T19:30:00.034Z,29.10
2018-09-02T19:32:28.226Z,30.00
2018-09-02T19:34:56.533Z,27.10
2018-09-02T19:37:24.854Z,29.30
2018-09-02T19:39:53.130Z,29.90
2018-09-02T19:42:21.382Z,29.30
2018-09-02T19:44:49.656Z,28.97
2018-09-02T19:47:17.851Z,27.67
2018-09-02T19:49:46.155Z,29.90
2018-09-02T19:52:14.448Z,30.43
2018-09-02T19:54:43.045Z,29.60
2018-09-02T19:57:11.311Z,29.83
2018-09-02T19:59:39.516Z,27.73
2018-09-02T20:02:07.885Z,30.93
2018-09-02T20:04:36.066Z,30.73
2018-09-02T20:07:04.257Z,30.57
2018-09-02T20:09:32.485Z,30.83
2018-09-02T20:12:00.683Z,28.23
2018-09-02T20:14:28.882Z,29.43
2018-09-02T20:16:57.088Z,29.10
2018-09-02T20:19:25.308Z,31.20
2018-09-02T20:21:53.594Z,32.20
2018-09-02T20:24:21.898Z,32.00
2018-09-02T20:26:50.210Z,32.07
2018-09-02T20:29:18.589Z,31.70
2018-09-02T20:31:46.773Z,29.90
2018-09-02T20:34:15.042Z,29.50
2018-09-02T20:36:43.241Z,30.47
2018-09-02T20:39:11.493Z,30.63
2018-09-02T20:41:39.697Z,28.23
2018-09-02T20:44:08.262Z,28.07
2018-09-02T20:46:36.501Z,28.90
2018-09-02T20:49:04.986Z,28.27
2018-09-02T20:51:33.269Z,31.50
2018-09-02T20:54:01.596Z,29.80
2018-09-02T20:56:29.833Z,31.83
2018-09-02T20:58:58.025Z,31.33
2018-09-02T21:01:26.308Z,30.37
2018-09-02T21:03:54.641Z,29.83
2018-09-02T21:06:22.909Z,30.77
2018-09-02T21:08:51.173Z,30.43
2018-09-02T21:11:19.507Z,30.20
2018-09-02T21:13:48.809Z,31.70
2018-09-02T21:16:17.250Z,31.50
2018-09-02T21:18:45.461Z,31.50
2018-09-02T21:21:13.777Z,31.47
2018-09-02T21:23:42.101Z,29.53
2018-09-02T21:26:10.310Z,32.80
2018-09-02T21:28:38.701Z,32.27
2018-09-02T21:31:07.078Z,32.30
2018-09-02T21:33:35.501Z,32.17
2018-09-02T21:36:03.693Z,31.20
2018-09-02T21:38:32.014Z,33.30
2018-09-02T21:41:00.309Z,34.83
2018-09-02T21:43:28.593Z,34.20
2018-09-02T21:45:56.859Z,35.10
2018-09-02T21:48:25.371Z,34.63
2018-09-02T21:50:53.653Z,32.93
2018-09-02T21:53:22.001Z,33.90
2018-09-02T21:55:50.218Z,33.07
2018-09-02T21:58:18.435Z,33.73
2018-09-02T22:00:46.737Z,31.17
2018-09-02T22:03:15.147Z,33.97
2018-09-02T22:05:47.389Z,32.87
2018-09-02T22:08:15.614Z,34.83
2018-09-02T22:10:44.109Z,30.10
2018-09-02T22:13:12.424Z,32.07
2018-09-02T22:15:41.287Z,33.03
2018-09-02T22:18:09.525Z,33.80
2018-09-02T22:20:37.880Z,29.07
2018-09-02T22:23:06.239Z,29.80
2018-09-02T22:25:34.518Z,33.00
2018-09-02T22:28:02.749Z,32.10
2018-09-02T22:30:31.826Z,31.47
2018-09-02T22:33:00.144Z,31.53
2018-09-02T22:35:28.450Z,31.70
2018-09-02T22:37:56.769Z,32.43
2018-09-02T22:40:25.197Z,30.57
2018-09-02T22:42:53.475Z,32.30
2018-09-02T22:45:27.365Z,33.50
2018-09-02T22:47:55.958Z,27.30
2018-09-02T22:50:32.551Z,31.83
2018-09-02T22:53:01.681Z,31.63
2018-09-02T22:55:30.105Z,30.57
2018-09-02T22:57:58.501Z,30.87
2018-09-02T23:00:26.708Z,31.27
2018-09-02T23:02:54.982Z,31.07
2018-09-02T23:05:23.318Z,30.63
2018-09-02T23:07:51.557Z,33.30
2018-09-02T23:10:19.837Z,32.07
2018-09-02T23:12:48.073Z,30.77
2018-09-02T23:15:16.434Z,31.20
2018-09-02T23:17:45.636Z,32.30
2018-09-02T23:20:13.843Z,32.33
2018-09-02T23:22:42.125Z,33.77
2018-09-02T23:25:10.442Z,31.00
2018-09-02T23:27:38.709Z,31.70
2018-09-02T23:30:07.005Z,32.20
2018-09-02T23:32:35.201Z,32.30
2018-09-02T23:35:03.506Z,33.93
2018-09-02T23:37:31.733Z,35.87
2018-09-02T23:39:59.985Z,32.07
2018-09-02T23:42:28.242Z,34.40
2018-09-02T23:44:56.430Z,31.60
2018-09-02T23:47:24.703Z,34.77
2018-09-02T23:49:52.961Z,35.20
2018-09-02T23:52:21.193Z,32.53
2018-09-02T23:54:49.381Z,34.70
2018-09-02T23:57:17.574Z,34.07
2018-09-02T23:59:45.846Z,35.13
